sensor_id;sensor_type;location;lat;lon;timestamp;temperature;humidity
13606;DHT22;6874;52.084;5.090;2023-10-19T00:01:47;10.70;99.90
13606;DHT22;6874;52.084;5.090;2023-10-19T00:04:13;10.70;99.90
13606;DHT22;6874;52.084;5.090;2023-10-19T00:06:40;10.70;99.90
13606;DHT22;6874;52.084;5.090;2023-10-19T00:09:05;10.70;99.90
13606;DHT22;6874;52.084;5.090;2023-10-19T00:11:36;10.70;99.90
13606;DHT22;6874;52.084;5.090;2023-10-19T00:14:04;10.70;99.90
13606;DHT22;6874;52.084;5.090;2023-10-19T00:16:29;10.70;99.90
13606;DHT22;6874;52.084;5.090;2023-10-19T00:18:55;10.70;99.90
13606;DHT22;6874;52.084;5.090;2023-10-19T00:21:25;10.80;99.90
13606;DHT22;6874;52.084;5.090;2023-10-19T00:23:57;10.70;99.90
13606;DHT22;6874;52.084;5.090;2023-10-19T00:26:24;10.80;99.90
13606;DHT22;6874;52.084;5.090;2023-10-19T00:28:55;10.70;99.90
13606;DHT22;6874;52.084;5.090;2023-10-19T00:31:25;10.80;99.90
13606;DHT22;6874;52.084;5.090;2023-10-19T00:33:54;10.80;99.90
13606;DHT22;6874;52.084;5.090;2023-10-19T00:36:22;10.80;99.90
13606;DHT22;6874;52.084;5.090;2023-10-19T00:38:48;10.80;99.90
13606;DHT22;6874;52.084;5.090;2023-10-19T00:41:15;10.80;99.90
13606;DHT22;6874;52.084;5.090;2023-10-19T00:43:47;10.80;99.90
13606;DHT22;6874;52.084;5.090;2023-10-19T00:46:18;10.90;99.90
13606;DHT22;6874;52.084;5.090;2023-10-19T00:48:46;10.90;99.90
13606;DHT22;6874;52.084;5.090;2023-10-19T00:51:14;10.80;99.90
13606;DHT22;6874;52.084;5.090;2023-10-19T00:54:06;10.90;99.90
13606;DHT22;6874;52.084;5.090;2023-10-19T00:56:44;10.90;99.90
13606;DHT22;6874;52.084;5.090;2023-10-19T00:59:21;10.90;99.90
13606;DHT22;6874;52.084;5.090;2023-10-19T01:01:51;10.90;99.90
13606;DHT22;6874;52.084;5.090;2023-10-19T01:04:19;10.90;99.90
13606;DHT22;6874;52.084;5.090;2023-10-19T01:06:49;10.90;99.90
13606;DHT22;6874;52.084;5.090;2023-10-19T01:09:44;11.00;99.90
13606;DHT22;6874;52.084;5.090;2023-10-19T01:12:10;11.00;99.90
13606;DHT22;6874;52.084;5.090;2023-10-19T01:17:48;11.00;99.90
13606;DHT22;6874;52.084;5.090;2023-10-19T01:20:21;11.00;99.90
13606;DHT22;6874;52.084;5.090;2023-10-19T01:22:59;11.00;99.90
13606;DHT22;6874;52.084;5.090;2023-10-19T01:28:22;11.10;99.90
13606;DHT22;6874;52.084;5.090;2023-10-19T01:30:51;11.10;99.90
13606;DHT22;6874;52.084;5.090;2023-10-19T01:33:17;11.10;99.90
13606;DHT22;6874;52.084;5.090;2023-10-19T01:35:44;11.10;99.90
13606;DHT22;6874;52.084;5.090;2023-10-19T01:38:29;11.10;99.90
13606;DHT22;6874;52.084;5.090;2023-10-19T01:40:59;11.10;99.90
13606;DHT22;6874;52.084;5.090;2023-10-19T01:43:28;11.10;99.90
13606;DHT22;6874;52.084;5.090;2023-10-19T01:45:57;11.10;99.90
13606;DHT22;6874;52.084;5.090;2023-10-19T01:48:23;11.10;99.90
13606;DHT22;6874;52.084;5.090;2023-10-19T01:51:05;11.20;99.90
13606;DHT22;6874;52.084;5.090;2023-10-19T01:53:34;11.20;99.90
13606;DHT22;6874;52.084;5.090;2023-10-19T01:56:08;11.20;99.90
13606;DHT22;6874;52.084;5.090;2023-10-19T01:58:38;11.20;99.90
13606;DHT22;6874;52.084;5.090;2023-10-19T02:01:05;11.20;99.90
13606;DHT22;6874;52.084;5.090;2023-10-19T02:03:40;11.20;99.90
13606;DHT22;6874;52.084;5.090;2023-10-19T02:06:08;11.30;99.90
13606;DHT22;6874;52.084;5.090;2023-10-19T02:08:54;11.30;99.90
13606;DHT22;6874;52.084;5.090;2023-10-19T02:11:26;11.30;99.90
13606;DHT22;6874;52.084;5.090;2023-10-19T02:13:53;11.30;99.90
13606;DHT22;6874;52.084;5.090;2023-10-19T02:16:20;11.30;99.90
13606;DHT22;6874;52.084;5.090;2023-10-19T02:18:50;11.40;99.90
13606;DHT22;6874;52.084;5.090;2023-10-19T02:21:16;11.40;99.90
13606;DHT22;6874;52.084;5.090;2023-10-19T02:23:50;11.40;99.90
13606;DHT22;6874;52.084;5.090;2023-10-19T02:26:17;11.50;99.90
13606;DHT22;6874;52.084;5.090;2023-10-19T02:28:46;11.50;99.90
13606;DHT22;6874;52.084;5.090;2023-10-19T02:31:12;11.50;99.90
13606;DHT22;6874;52.084;5.090;2023-10-19T02:33:55;11.60;99.90
13606;DHT22;6874;52.084;5.090;2023-10-19T02:36:25;11.60;99.90
13606;DHT22;6874;52.084;5.090;2023-10-19T02:38:54;11.60;99.90
13606;DHT22;6874;52.084;5.090;2023-10-19T02:41:24;11.60;99.90
13606;DHT22;6874;52.084;5.090;2023-10-19T02:43:50;11.60;99.90
13606;DHT22;6874;52.084;5.090;2023-10-19T02:46:31;11.70;99.90
13606;DHT22;6874;52.084;5.090;2023-10-19T02:49:03;11.70;99.90
13606;DHT22;6874;52.084;5.090;2023-10-19T02:51:43;11.70;99.90
13606;DHT22;6874;52.084;5.090;2023-10-19T02:54:10;11.70;99.90
13606;DHT22;6874;52.084;5.090;2023-10-19T02:56:43;11.80;99.90
13606;DHT22;6874;52.084;5.090;2023-10-19T02:59:13;11.80;99.90
13606;DHT22;6874;52.084;5.090;2023-10-19T03:01:41;11.80;99.90
13606;DHT22;6874;52.084;5.090;2023-10-19T03:04:10;11.80;99.90
13606;DHT22;6874;52.084;5.090;2023-10-19T03:06:38;11.90;99.90
13606;DHT22;6874;52.084;5.090;2023-10-19T03:09:06;11.90;99.90
13606;DHT22;6874;52.084;5.090;2023-10-19T03:11:44;11.90;99.90
13606;DHT22;6874;52.084;5.090;2023-10-19T03:14:11;11.90;99.90
13606;DHT22;6874;52.084;5.090;2023-10-19T03:16:41;11.90;99.90
13606;DHT22;6874;52.084;5.090;2023-10-19T03:19:07;12.00;99.90
13606;DHT22;6874;52.084;5.090;2023-10-19T03:21:34;12.00;99.90
13606;DHT22;6874;52.084;5.090;2023-10-19T03:24:08;12.00;99.90
13606;DHT22;6874;52.084;5.090;2023-10-19T03:26:51;12.00;99.90
13606;DHT22;6874;52.084;5.090;2023-10-19T03:29:19;12.10;99.90
13606;DHT22;6874;52.084;5.090;2023-10-19T03:31:56;12.10;99.90
13606;DHT22;6874;52.084;5.090;2023-10-19T03:34:21;12.10;99.90
13606;DHT22;6874;52.084;5.090;2023-10-19T03:36:49;12.10;99.90
13606;DHT22;6874;52.084;5.090;2023-10-19T03:39:16;12.10;99.90
13606;DHT22;6874;52.084;5.090;2023-10-19T03:41:44;12.20;99.90
13606;DHT22;6874;52.084;5.090;2023-10-19T03:44:11;12.20;99.90
13606;DHT22;6874;52.084;5.090;2023-10-19T03:46:49;12.20;99.90
13606;DHT22;6874;52.084;5.090;2023-10-19T03:49:23;12.20;99.90
13606;DHT22;6874;52.084;5.090;2023-10-19T03:51:52;12.30;99.90
13606;DHT22;6874;52.084;5.090;2023-10-19T03:54:35;12.30;99.90
13606;DHT22;6874;52.084;5.090;2023-10-19T03:57:04;12.30;99.90
13606;DHT22;6874;52.084;5.090;2023-10-19T03:59:38;12.30;99.90
13606;DHT22;6874;52.084;5.090;2023-10-19T04:02:04;12.30;99.90
13606;DHT22;6874;52.084;5.090;2023-10-19T04:04:39;12.40;99.90
13606;DHT22;6874;52.084;5.090;2023-10-19T04:07:11;12.40;99.90
13606;DHT22;6874;52.084;5.090;2023-10-19T04:09:45;12.40;99.90
13606;DHT22;6874;52.084;5.090;2023-10-19T04:12:38;12.40;99.90
13606;DHT22;6874;52.084;5.090;2023-10-19T04:15:05;12.40;99.90
13606;DHT22;6874;52.084;5.090;2023-10-19T04:17:36;12.40;99.90
13606;DHT22;6874;52.084;5.090;2023-10-19T04:20:02;12.40;99.90
13606;DHT22;6874;52.084;5.090;2023-10-19T04:22:38;12.40;99.90
13606;DHT22;6874;52.084;5.090;2023-10-19T04:25:04;12.40;99.90
13606;DHT22;6874;52.084;5.090;2023-10-19T04:27:31;12.40;99.90
13606;DHT22;6874;52.084;5.090;2023-10-19T04:30:01;12.50;99.90
13606;DHT22;6874;52.084;5.090;2023-10-19T04:32:27;12.40;99.90
13606;DHT22;6874;52.084;5.090;2023-10-19T04:34:53;12.50;99.90
13606;DHT22;6874;52.084;5.090;2023-10-19T04:37:18;12.50;99.90
13606;DHT22;6874;52.084;5.090;2023-10-19T04:39:45;12.50;99.90
13606;DHT22;6874;52.084;5.090;2023-10-19T04:42:11;12.40;99.90
13606;DHT22;6874;52.084;5.090;2023-10-19T04:44:37;12.50;99.90
13606;DHT22;6874;52.084;5.090;2023-10-19T04:47:03;12.50;99.90
13606;DHT22;6874;52.084;5.090;2023-10-19T04:49:28;12.40;99.90
13606;DHT22;6874;52.084;5.090;2023-10-19T04:51:54;12.50;99.90
13606;DHT22;6874;52.084;5.090;2023-10-19T04:54:20;12.40;99.90
13606;DHT22;6874;52.084;5.090;2023-10-19T04:56:45;12.40;99.90
13606;DHT22;6874;52.084;5.090;2023-10-19T04:59:11;12.40;99.90
13606;DHT22;6874;52.084;5.090;2023-10-19T05:01:36;12.40;99.90
13606;DHT22;6874;52.084;5.090;2023-10-19T05:04:02;12.40;99.90
13606;DHT22;6874;52.084;5.090;2023-10-19T05:06:28;12.50;99.90
13606;DHT22;6874;52.084;5.090;2023-10-19T05:08:53;12.50;99.90
13606;DHT22;6874;52.084;5.090;2023-10-19T05:11:19;12.50;99.90
13606;DHT22;6874;52.084;5.090;2023-10-19T05:13:44;12.50;99.90
13606;DHT22;6874;52.084;5.090;2023-10-19T05:16:10;12.50;99.90
13606;DHT22;6874;52.084;5.090;2023-10-19T05:18:36;12.50;99.90
13606;DHT22;6874;52.084;5.090;2023-10-19T05:21:01;12.50;99.90
13606;DHT22;6874;52.084;5.090;2023-10-19T05:23:27;12.50;99.90
13606;DHT22;6874;52.084;5.090;2023-10-19T05:25:59;12.50;99.90
13606;DHT22;6874;52.084;5.090;2023-10-19T05:28:25;12.50;99.90
13606;DHT22;6874;52.084;5.090;2023-10-19T05:30:51;12.50;99.90
13606;DHT22;6874;52.084;5.090;2023-10-19T05:33:17;12.60;99.90
13606;DHT22;6874;52.084;5.090;2023-10-19T05:35:50;12.60;99.90
13606;DHT22;6874;52.084;5.090;2023-10-19T05:38:18;12.60;99.90
13606;DHT22;6874;52.084;5.090;2023-10-19T05:40:48;12.60;99.90
13606;DHT22;6874;52.084;5.090;2023-10-19T05:43:15;12.60;99.90
13606;DHT22;6874;52.084;5.090;2023-10-19T05:45:41;12.60;99.90
13606;DHT22;6874;52.084;5.090;2023-10-19T05:48:07;12.60;99.90
13606;DHT22;6874;52.084;5.090;2023-10-19T05:50:36;12.60;99.90
13606;DHT22;6874;52.084;5.090;2023-10-19T05:53:03;12.70;99.90
13606;DHT22;6874;52.084;5.090;2023-10-19T05:55:29;12.70;99.90
13606;DHT22;6874;52.084;5.090;2023-10-19T05:57:55;12.70;99.90
13606;DHT22;6874;52.084;5.090;2023-10-19T06:00:21;12.70;99.90
13606;DHT22;6874;52.084;5.090;2023-10-19T06:02:50;12.70;99.90
13606;DHT22;6874;52.084;5.090;2023-10-19T06:05:16;12.70;99.90
13606;DHT22;6874;52.084;5.090;2023-10-19T06:07:47;12.80;99.90
13606;DHT22;6874;52.084;5.090;2023-10-19T06:10:17;12.80;99.90
13606;DHT22;6874;52.084;5.090;2023-10-19T06:12:48;12.70;99.90
13606;DHT22;6874;52.084;5.090;2023-10-19T06:15:16;12.80;99.90
13606;DHT22;6874;52.084;5.090;2023-10-19T06:17:43;12.80;99.90
13606;DHT22;6874;52.084;5.090;2023-10-19T06:20:10;12.80;99.90
13606;DHT22;6874;52.084;5.090;2023-10-19T06:22:52;12.80;99.90
13606;DHT22;6874;52.084;5.090;2023-10-19T06:25:20;12.80;99.90
13606;DHT22;6874;52.084;5.090;2023-10-19T06:27:47;12.80;99.90
13606;DHT22;6874;52.084;5.090;2023-10-19T06:30:17;12.80;99.90
13606;DHT22;6874;52.084;5.090;2023-10-19T06:32:54;12.80;99.90
13606;DHT22;6874;52.084;5.090;2023-10-19T06:35:21;12.80;99.90
13606;DHT22;6874;52.084;5.090;2023-10-19T06:37:48;12.80;99.90
13606;DHT22;6874;52.084;5.090;2023-10-19T06:40:15;12.80;99.90
13606;DHT22;6874;52.084;5.090;2023-10-19T06:42:42;12.80;99.90
13606;DHT22;6874;52.084;5.090;2023-10-19T06:45:08;12.80;99.90
13606;DHT22;6874;52.084;5.090;2023-10-19T06:47:35;12.80;99.90
13606;DHT22;6874;52.084;5.090;2023-10-19T06:50:05;12.90;99.90
13606;DHT22;6874;52.084;5.090;2023-10-19T06:52:35;12.80;99.90
13606;DHT22;6874;52.084;5.090;2023-10-19T06:55:04;12.80;99.90
13606;DHT22;6874;52.084;5.090;2023-10-19T06:57:31;12.80;99.90
13606;DHT22;6874;52.084;5.090;2023-10-19T06:59:58;12.80;99.90
13606;DHT22;6874;52.084;5.090;2023-10-19T07:02:24;12.90;99.90
13606;DHT22;6874;52.084;5.090;2023-10-19T07:04:50;12.90;99.90
13606;DHT22;6874;52.084;5.090;2023-10-19T07:07:15;12.90;99.90
13606;DHT22;6874;52.084;5.090;2023-10-19T07:09:41;12.90;99.90
13606;DHT22;6874;52.084;5.090;2023-10-19T07:12:07;12.90;99.90
13606;DHT22;6874;52.084;5.090;2023-10-19T07:14:33;12.90;99.90
13606;DHT22;6874;52.084;5.090;2023-10-19T07:16:59;12.90;99.90
13606;DHT22;6874;52.084;5.090;2023-10-19T07:19:25;12.90;99.90
13606;DHT22;6874;52.084;5.090;2023-10-19T07:21:51;12.90;99.90
13606;DHT22;6874;52.084;5.090;2023-10-19T07:24:23;13.00;99.90
13606;DHT22;6874;52.084;5.090;2023-10-19T07:26:50;13.00;99.90
13606;DHT22;6874;52.084;5.090;2023-10-19T07:29:20;13.00;99.90
13606;DHT22;6874;52.084;5.090;2023-10-19T07:31:46;13.00;99.90
13606;DHT22;6874;52.084;5.090;2023-10-19T07:34:11;13.00;99.90
13606;DHT22;6874;52.084;5.090;2023-10-19T07:36:40;13.00;99.90
13606;DHT22;6874;52.084;5.090;2023-10-19T07:39:08;13.00;99.90
13606;DHT22;6874;52.084;5.090;2023-10-19T07:41:42;13.10;99.90
13606;DHT22;6874;52.084;5.090;2023-10-19T07:44:07;13.10;99.90
13606;DHT22;6874;52.084;5.090;2023-10-19T07:46:33;13.10;99.90
13606;DHT22;6874;52.084;5.090;2023-10-19T07:48:58;13.10;99.90
13606;DHT22;6874;52.084;5.090;2023-10-19T07:51:26;13.10;99.90
13606;DHT22;6874;52.084;5.090;2023-10-19T07:53:51;13.10;99.90
13606;DHT22;6874;52.084;5.090;2023-10-19T07:56:17;13.20;99.90
13606;DHT22;6874;52.084;5.090;2023-10-19T07:58:43;13.20;99.90
13606;DHT22;6874;52.084;5.090;2023-10-19T08:01:08;13.20;99.90
13606;DHT22;6874;52.084;5.090;2023-10-19T08:03:34;13.20;99.90
13606;DHT22;6874;52.084;5.090;2023-10-19T08:06:00;13.20;99.90
13606;DHT22;6874;52.084;5.090;2023-10-19T08:08:26;13.20;99.90
13606;DHT22;6874;52.084;5.090;2023-10-19T08:10:58;13.30;99.90
13606;DHT22;6874;52.084;5.090;2023-10-19T08:13:24;13.30;99.90
13606;DHT22;6874;52.084;5.090;2023-10-19T08:15:51;13.30;99.90
13606;DHT22;6874;52.084;5.090;2023-10-19T08:18:17;13.30;99.90
13606;DHT22;6874;52.084;5.090;2023-10-19T08:20:43;13.30;99.90
13606;DHT22;6874;52.084;5.090;2023-10-19T08:23:11;13.30;99.90
13606;DHT22;6874;52.084;5.090;2023-10-19T08:25:39;13.40;99.90
13606;DHT22;6874;52.084;5.090;2023-10-19T08:28:05;13.40;99.90
13606;DHT22;6874;52.084;5.090;2023-10-19T08:30:32;13.40;99.90
13606;DHT22;6874;52.084;5.090;2023-10-19T08:32:59;13.40;99.90
13606;DHT22;6874;52.084;5.090;2023-10-19T08:35:26;13.40;99.90
13606;DHT22;6874;52.084;5.090;2023-10-19T08:37:52;13.40;99.90
13606;DHT22;6874;52.084;5.090;2023-10-19T08:40:18;13.40;99.90
13606;DHT22;6874;52.084;5.090;2023-10-19T08:42:45;13.50;99.90
13606;DHT22;6874;52.084;5.090;2023-10-19T08:45:12;13.50;99.90
13606;DHT22;6874;52.084;5.090;2023-10-19T08:48:01;13.50;99.90
13606;DHT22;6874;52.084;5.090;2023-10-19T08:50:29;13.50;99.90
13606;DHT22;6874;52.084;5.090;2023-10-19T08:52:56;13.60;99.90
13606;DHT22;6874;52.084;5.090;2023-10-19T08:55:22;13.60;99.90
13606;DHT22;6874;52.084;5.090;2023-10-19T08:57:49;13.60;99.90
13606;DHT22;6874;52.084;5.090;2023-10-19T09:00:16;13.60;99.90
13606;DHT22;6874;52.084;5.090;2023-10-19T09:02:48;13.70;99.90
13606;DHT22;6874;52.084;5.090;2023-10-19T09:05:14;13.70;99.90
13606;DHT22;6874;52.084;5.090;2023-10-19T09:07:54;13.80;99.90
13606;DHT22;6874;52.084;5.090;2023-10-19T09:10:24;13.80;99.90
13606;DHT22;6874;52.084;5.090;2023-10-19T09:13:04;13.80;99.90
13606;DHT22;6874;52.084;5.090;2023-10-19T09:15:33;13.90;99.90
13606;DHT22;6874;52.084;5.090;2023-10-19T09:18:16;13.90;99.90
13606;DHT22;6874;52.084;5.090;2023-10-19T09:20:50;14.00;99.90
13606;DHT22;6874;52.084;5.090;2023-10-19T09:23:25;14.00;99.90
13606;DHT22;6874;52.084;5.090;2023-10-19T09:25:57;14.00;99.90
13606;DHT22;6874;52.084;5.090;2023-10-19T09:28:22;14.10;99.90
13606;DHT22;6874;52.084;5.090;2023-10-19T09:30:49;14.10;99.90
13606;DHT22;6874;52.084;5.090;2023-10-19T09:33:16;14.10;99.90
13606;DHT22;6874;52.084;5.090;2023-10-19T09:35:45;14.10;99.90
13606;DHT22;6874;52.084;5.090;2023-10-19T09:38:14;14.10;99.90
13606;DHT22;6874;52.084;5.090;2023-10-19T09:40:40;14.20;99.90
13606;DHT22;6874;52.084;5.090;2023-10-19T09:43:11;14.20;99.90
13606;DHT22;6874;52.084;5.090;2023-10-19T09:45:41;14.20;99.90
13606;DHT22;6874;52.084;5.090;2023-10-19T09:48:08;14.20;99.90
13606;DHT22;6874;52.084;5.090;2023-10-19T09:50:34;14.20;99.90
13606;DHT22;6874;52.084;5.090;2023-10-19T09:53:01;14.30;99.90
13606;DHT22;6874;52.084;5.090;2023-10-19T09:55:38;14.30;99.90
13606;DHT22;6874;52.084;5.090;2023-10-19T09:58:12;14.40;99.90
13606;DHT22;6874;52.084;5.090;2023-10-19T10:00:45;14.40;99.90
13606;DHT22;6874;52.084;5.090;2023-10-19T10:03:42;14.50;99.90
13606;DHT22;6874;52.084;5.090;2023-10-19T10:06:09;14.50;99.90
13606;DHT22;6874;52.084;5.090;2023-10-19T10:08:39;14.50;99.90
13606;DHT22;6874;52.084;5.090;2023-10-19T10:11:18;14.50;99.90
13606;DHT22;6874;52.084;5.090;2023-10-19T10:13:44;14.60;99.90
13606;DHT22;6874;52.084;5.090;2023-10-19T10:16:13;14.60;99.90
13606;DHT22;6874;52.084;5.090;2023-10-19T10:18:40;14.60;99.90
13606;DHT22;6874;52.084;5.090;2023-10-19T10:21:07;14.70;99.90
13606;DHT22;6874;52.084;5.090;2023-10-19T10:23:44;14.70;99.90
13606;DHT22;6874;52.084;5.090;2023-10-19T10:26:13;14.70;99.90
13606;DHT22;6874;52.084;5.090;2023-10-19T10:28:40;14.70;99.90
13606;DHT22;6874;52.084;5.090;2023-10-19T10:31:20;14.80;99.90
13606;DHT22;6874;52.084;5.090;2023-10-19T10:33:48;14.80;99.90
13606;DHT22;6874;52.084;5.090;2023-10-19T10:36:16;14.80;99.90
13606;DHT22;6874;52.084;5.090;2023-10-19T10:38:43;14.90;99.90
13606;DHT22;6874;52.084;5.090;2023-10-19T10:41:09;14.90;99.90
13606;DHT22;6874;52.084;5.090;2023-10-19T10:43:51;14.90;99.90
13606;DHT22;6874;52.084;5.090;2023-10-19T10:46:22;14.90;99.90
13606;DHT22;6874;52.084;5.090;2023-10-19T10:48:48;15.00;99.90
13606;DHT22;6874;52.084;5.090;2023-10-19T10:51:25;15.00;99.90
13606;DHT22;6874;52.084;5.090;2023-10-19T10:53:53;15.00;99.90
13606;DHT22;6874;52.084;5.090;2023-10-19T10:56:20;15.00;99.90
13606;DHT22;6874;52.084;5.090;2023-10-19T10:58:46;15.10;99.90
13606;DHT22;6874;52.084;5.090;2023-10-19T11:01:12;15.10;99.90
13606;DHT22;6874;52.084;5.090;2023-10-19T11:03:42;15.20;99.90
13606;DHT22;6874;52.084;5.090;2023-10-19T11:06:09;15.20;99.90
13606;DHT22;6874;52.084;5.090;2023-10-19T11:08:35;15.20;99.90
13606;DHT22;6874;52.084;5.090;2023-10-19T11:11:10;15.30;99.90
13606;DHT22;6874;52.084;5.090;2023-10-19T11:13:37;15.30;99.90
13606;DHT22;6874;52.084;5.090;2023-10-19T11:16:05;15.40;99.90
13606;DHT22;6874;52.084;5.090;2023-10-19T11:18:41;15.40;99.90
13606;DHT22;6874;52.084;5.090;2023-10-19T11:21:13;15.40;99.90
13606;DHT22;6874;52.084;5.090;2023-10-19T11:23:47;15.50;99.90
13606;DHT22;6874;52.084;5.090;2023-10-19T11:26:19;15.50;99.90
13606;DHT22;6874;52.084;5.090;2023-10-19T11:28:45;15.60;99.90
13606;DHT22;6874;52.084;5.090;2023-10-19T11:31:21;15.60;99.90
13606;DHT22;6874;52.084;5.090;2023-10-19T11:33:51;15.70;99.90
13606;DHT22;6874;52.084;5.090;2023-10-19T11:36:19;15.70;99.90
13606;DHT22;6874;52.084;5.090;2023-10-19T11:38:46;15.80;99.90
13606;DHT22;6874;52.084;5.090;2023-10-19T11:41:13;15.80;99.90
13606;DHT22;6874;52.084;5.090;2023-10-19T11:43:47;15.80;99.90
13606;DHT22;6874;52.084;5.090;2023-10-19T11:46:14;15.80;99.90
13606;DHT22;6874;52.084;5.090;2023-10-19T11:48:40;15.90;99.90
13606;DHT22;6874;52.084;5.090;2023-10-19T11:51:08;15.90;99.90
13606;DHT22;6874;52.084;5.090;2023-10-19T11:53:37;15.90;99.90
13606;DHT22;6874;52.084;5.090;2023-10-19T11:56:05;15.90;99.90
13606;DHT22;6874;52.084;5.090;2023-10-19T11:58:35;16.00;99.90
13606;DHT22;6874;52.084;5.090;2023-10-19T12:01:01;16.00;99.90
13606;DHT22;6874;52.084;5.090;2023-10-19T12:03:42;16.00;99.90
13606;DHT22;6874;52.084;5.090;2023-10-19T12:06:11;16.10;99.90
13606;DHT22;6874;52.084;5.090;2023-10-19T12:08:38;16.10;99.90
13606;DHT22;6874;52.084;5.090;2023-10-19T12:11:05;16.10;99.90
13606;DHT22;6874;52.084;5.090;2023-10-19T12:13:40;16.20;99.90
13606;DHT22;6874;52.084;5.090;2023-10-19T12:16:07;16.20;99.90
13606;DHT22;6874;52.084;5.090;2023-10-19T12:18:32;16.20;99.90
13606;DHT22;6874;52.084;5.090;2023-10-19T12:20:58;16.20;99.90
13606;DHT22;6874;52.084;5.090;2023-10-19T12:23:25;16.20;99.90
13606;DHT22;6874;52.084;5.090;2023-10-19T12:25:51;16.20;99.90
13606;DHT22;6874;52.084;5.090;2023-10-19T12:28:17;16.30;99.90
13606;DHT22;6874;52.084;5.090;2023-10-19T12:30:43;16.20;99.90
13606;DHT22;6874;52.084;5.090;2023-10-19T12:33:10;16.30;99.90
13606;DHT22;6874;52.084;5.090;2023-10-19T12:35:42;16.20;99.90
13606;DHT22;6874;52.084;5.090;2023-10-19T12:38:14;16.20;99.90
13606;DHT22;6874;52.084;5.090;2023-10-19T12:40:44;16.30;99.90
13606;DHT22;6874;52.084;5.090;2023-10-19T12:43:10;16.20;99.90
13606;DHT22;6874;52.084;5.090;2023-10-19T12:45:36;16.30;99.90
13606;DHT22;6874;52.084;5.090;2023-10-19T12:48:05;16.30;99.90
13606;DHT22;6874;52.084;5.090;2023-10-19T12:50:31;16.30;99.90
13606;DHT22;6874;52.084;5.090;2023-10-19T12:52:57;16.20;99.90
13606;DHT22;6874;52.084;5.090;2023-10-19T12:55:23;16.30;99.90
13606;DHT22;6874;52.084;5.090;2023-10-19T12:57:52;16.30;99.90
13606;DHT22;6874;52.084;5.090;2023-10-19T13:00:18;16.20;99.90
13606;DHT22;6874;52.084;5.090;2023-10-19T13:02:51;16.20;99.90
13606;DHT22;6874;52.084;5.090;2023-10-19T13:05:32;16.20;99.90
13606;DHT22;6874;52.084;5.090;2023-10-19T13:07:57;16.20;99.90
13606;DHT22;6874;52.084;5.090;2023-10-19T13:10:28;16.20;99.90
13606;DHT22;6874;52.084;5.090;2023-10-19T13:13:00;16.20;99.90
13606;DHT22;6874;52.084;5.090;2023-10-19T13:15:32;16.20;99.90
13606;DHT22;6874;52.084;5.090;2023-10-19T13:18:00;16.20;99.90
13606;DHT22;6874;52.084;5.090;2023-10-19T13:20:26;16.20;99.90
13606;DHT22;6874;52.084;5.090;2023-10-19T13:22:52;16.20;99.90
13606;DHT22;6874;52.084;5.090;2023-10-19T13:25:18;16.20;99.90
13606;DHT22;6874;52.084;5.090;2023-10-19T13:27:46;16.20;99.90
13606;DHT22;6874;52.084;5.090;2023-10-19T13:30:12;16.30;99.90
13606;DHT22;6874;52.084;5.090;2023-10-19T13:32:40;16.20;99.90
13606;DHT22;6874;52.084;5.090;2023-10-19T13:35:07;16.20;99.90
13606;DHT22;6874;52.084;5.090;2023-10-19T13:37:32;16.20;99.90
13606;DHT22;6874;52.084;5.090;2023-10-19T13:39:58;16.20;99.90
13606;DHT22;6874;52.084;5.090;2023-10-19T13:42:26;16.20;99.90
13606;DHT22;6874;52.084;5.090;2023-10-19T13:44:54;16.20;99.90
13606;DHT22;6874;52.084;5.090;2023-10-19T13:47:19;16.20;99.90
13606;DHT22;6874;52.084;5.090;2023-10-19T13:49:45;16.20;99.90
13606;DHT22;6874;52.084;5.090;2023-10-19T13:52:11;16.20;99.90
13606;DHT22;6874;52.084;5.090;2023-10-19T13:54:37;16.20;99.90
13606;DHT22;6874;52.084;5.090;2023-10-19T13:57:06;16.20;99.90
13606;DHT22;6874;52.084;5.090;2023-10-19T13:59:31;16.20;99.90
13606;DHT22;6874;52.084;5.090;2023-10-19T14:01:59;16.20;99.90
13606;DHT22;6874;52.084;5.090;2023-10-19T14:04:24;16.20;99.90
13606;DHT22;6874;52.084;5.090;2023-10-19T14:06:50;16.20;99.90
13606;DHT22;6874;52.084;5.090;2023-10-19T14:09:16;16.20;99.90
13606;DHT22;6874;52.084;5.090;2023-10-19T14:11:43;16.20;99.90
13606;DHT22;6874;52.084;5.090;2023-10-19T14:14:10;16.20;99.90
13606;DHT22;6874;52.084;5.090;2023-10-19T14:16:36;16.30;99.90
13606;DHT22;6874;52.084;5.090;2023-10-19T14:19:04;16.30;99.90
13606;DHT22;6874;52.084;5.090;2023-10-19T14:21:30;16.30;99.90
13606;DHT22;6874;52.084;5.090;2023-10-19T14:23:56;16.20;99.90
13606;DHT22;6874;52.084;5.090;2023-10-19T14:26:22;16.30;99.90
13606;DHT22;6874;52.084;5.090;2023-10-19T14:28:47;16.30;99.90
13606;DHT22;6874;52.084;5.090;2023-10-19T14:31:14;16.30;99.90
13606;DHT22;6874;52.084;5.090;2023-10-19T14:33:39;16.30;99.90
13606;DHT22;6874;52.084;5.090;2023-10-19T14:36:05;16.30;99.90
13606;DHT22;6874;52.084;5.090;2023-10-19T14:38:31;16.30;99.90
13606;DHT22;6874;52.084;5.090;2023-10-19T14:40:58;16.20;99.90
13606;DHT22;6874;52.084;5.090;2023-10-19T14:43:24;16.20;99.90
13606;DHT22;6874;52.084;5.090;2023-10-19T14:45:51;16.20;99.90
13606;DHT22;6874;52.084;5.090;2023-10-19T14:48:16;16.20;99.90
13606;DHT22;6874;52.084;5.090;2023-10-19T14:50:44;16.30;99.90
13606;DHT22;6874;52.084;5.090;2023-10-19T14:53:10;16.30;99.90
13606;DHT22;6874;52.084;5.090;2023-10-19T14:55:35;16.20;99.90
13606;DHT22;6874;52.084;5.090;2023-10-19T14:58:01;16.20;99.90
13606;DHT22;6874;52.084;5.090;2023-10-19T15:00:28;16.20;99.90
13606;DHT22;6874;52.084;5.090;2023-10-19T15:03:01;16.20;99.90
13606;DHT22;6874;52.084;5.090;2023-10-19T15:05:28;16.10;99.90
13606;DHT22;6874;52.084;5.090;2023-10-19T15:07:54;16.10;99.90
13606;DHT22;6874;52.084;5.090;2023-10-19T15:10:24;16.10;99.90
13606;DHT22;6874;52.084;5.090;2023-10-19T15:12:51;16.10;99.90
13606;DHT22;6874;52.084;5.090;2023-10-19T15:15:17;16.10;99.90
13606;DHT22;6874;52.084;5.090;2023-10-19T15:17:44;16.10;99.90
13606;DHT22;6874;52.084;5.090;2023-10-19T15:20:11;16.10;99.90
13606;DHT22;6874;52.084;5.090;2023-10-19T15:22:38;16.10;99.90
13606;DHT22;6874;52.084;5.090;2023-10-19T15:25:07;16.00;99.90
13606;DHT22;6874;52.084;5.090;2023-10-19T15:27:35;16.10;99.90
13606;DHT22;6874;52.084;5.090;2023-10-19T15:30:02;16.10;99.90
13606;DHT22;6874;52.084;5.090;2023-10-19T15:32:28;16.10;99.90
13606;DHT22;6874;52.084;5.090;2023-10-19T15:34:56;16.00;99.90
13606;DHT22;6874;52.084;5.090;2023-10-19T15:37:22;16.10;99.90
13606;DHT22;6874;52.084;5.090;2023-10-19T15:39:51;16.10;99.90
13606;DHT22;6874;52.084;5.090;2023-10-19T15:42:17;16.10;99.90
13606;DHT22;6874;52.084;5.090;2023-10-19T15:44:44;16.10;99.90
13606;DHT22;6874;52.084;5.090;2023-10-19T15:47:09;16.10;99.90
13606;DHT22;6874;52.084;5.090;2023-10-19T15:49:45;16.10;99.90
13606;DHT22;6874;52.084;5.090;2023-10-19T15:52:11;16.10;99.90
13606;DHT22;6874;52.084;5.090;2023-10-19T15:54:37;16.10;99.90
13606;DHT22;6874;52.084;5.090;2023-10-19T15:57:02;16.20;99.90
13606;DHT22;6874;52.084;5.090;2023-10-19T15:59:28;16.10;99.90
13606;DHT22;6874;52.084;5.090;2023-10-19T16:01:53;16.10;99.90